Minot Air Force Base
KMIB : now visible

Airfield :











YOU CAN JOIN US ON...

 
LOGIN :

Register | Disclaimer

   EN    FR    IT 

 









Legend :    VFR   Marginal VFR   IFR   Intensive IFR   Very Intensive IFR
Visi :
Ceiling :
>= 8 km
>= 3000ft
5 to 8 km
1000 to 3000 ft
1500m to 5 km
500 to 1000 ft
800 to 1500m
200 to 500 ft
< 800m
< 200 ft
Symbols :   Thunderstorms  Fog  Heavy snow  Heavy precipitations  Wind > 20 kt






- Airport Elevation : 1667 ft


KMIB - Minot Air Force Base

CURRENT METAR :
  • 162156Z AUTO 36004KT 10SM FEW040 28/18 A3002 RMK AO2 SLP164 T02840176 $

EXPIRED METARs :
  • 162056Z 02003KT 10SM CLR 27/19 A3002 RMK AO2A SLP164 T02670185 57011 $
  • 161956Z 08005KT 10SM SCT022 27/20 A3004 RMK AO2A SLP172 T02650203 $

TAF TAF KMIB
Valid from the 16 at 17:00 until the 17 at 23:00 UTC


161700Z 1617/1723 02006KT 8000 BR BKN004 QNH3004INS
BECMG 1617/1618 03006KT 9999 NSW FEW060 QNH3000INS
BECMG 1622/1623 VRB06KT 9999 FEW160 QNH3000INS
BECMG 1708/1709 18006KT 4800 BR FEW120 QNH3002INS
BECMG 1713/1714 19006KT 9999 NSW SCT100 QNH3002INS
BECMG 1718/1719 33012G18KT 8000 -SHRA VCTS SCT040 BKN070CB QNH2996INS
TEMPO 1720/1723 32020G35KT 3200 TSRA BKN030CB OVC070 TX28/1622Z TN16/1712Z
KZMP FIR / North America



MET'MAP, your aeronautical weather chart ! - Copyright ORBIFLY December 2007 - Disclaimer

ORBIFLY MET'MAP TEAM :

Programming & Development : Alexandra Zaïnal
Original concept : Baudouin d'Aumeries
Technical & hardware support : Manuel Goepfert
Assistance : Marc-Olivier Méhu




SOURCES & CREDITS :

   NOAA       Earth
Advisory